Time;durP1;ratioP1;P1;durP2;ratioP2;P2;SDS_P1;SDS_P2;PMS_P1;PMS_P2;Temp;Humidity;BMP_temperature;BMP_pressure;BME280_temperature;BME280_humidity;BME280_pressure;Samples;Min_cycle;Max_cycle;Signal;HPM_P1;HPM_P2
2022/02/15 02:20:13;;;;;;;;;;;;;;;;;;;;;
2022/02/15 03:43:18;;;;;;;;;;;;;;;;;;;;;
2022/02/15 04:25:57;;;;;;;;;;;;;;;;;;;;;
2022/02/15 04:44:00;;;;;;;8.73;6.37;;;;;;;;;;6199791;23;20208;-84
2022/02/15 04:53:24;;;;;;;7.20;5.57;;;;;;;;;;6175870;23;20200;-85
2022/02/15 05:01:47;;;;;;;9.70;6.53;;;;;;;;;;6161853;23;20149;-84
2022/02/15 05:05:31;;;;;;;11.80;6.73;;;;;;;;;;6160472;23;20153;-84
2022/02/15 05:08:35;;;;;;;9.73;6.67;;;;;;;;;;6145217;23;20149;-84
2022/02/15 05:11:42;;;;;;;8.90;6.43;;;;;;;;;;6161610;23;20464;-86
2022/02/15 05:14:47;;;;;;;13.13;7.90;;;;;;;;;;6162197;23;20157;-86
2022/02/15 05:17:59;;;;;;;12.13;8.27;;;;;;;;;;6162431;23;20157;-85
2022/02/15 05:21:04;;;;;;;12.00;8.40;;;;;;;;;;6162687;23;20610;-86
2022/02/15 05:46:05;;;;;;;14.80;10.17;;;;;;;;;;6169389;23;20591;-86
2022/02/15 05:54:42;;;;;;;15.27;10.50;;;;;;;;;;6148067;23;20197;-86
2022/02/15 05:58:46;;;;;;;16.50;10.70;;;;;;;;;;6171242;23;20618;-85
2022/02/15 06:02:11;;;;;;;17.03;10.70;;;;;;;;;;6150545;23;20162;-86
2022/02/15 06:05:39;;;;;;;15.57;10.80;;;;;;;;;;6154728;23;20157;-86
2022/02/15 06:08:43;;;;;;;16.97;11.57;;;;;;;;;;6150720;23;20163;-87
2022/02/15 06:11:48;;;;;;;16.43;11.60;;;;;;;;;;6166302;23;20161;-86
2022/02/15 06:14:52;;;;;;;18.03;11.60;;;;;;;;;;6139607;23;20206;-86
2022/02/15 06:17:56;;;;;;;16.90;11.87;;;;;;;;;;6157117;23;20173;-86
2022/02/15 06:21:01;;;;;;;16.27;11.80;;;;;;;;;;6149720;23;20153;-86
2022/02/15 06:24:07;;;;;;;17.47;11.37;;;;;;;;;;6141942;23;20192;-86
2022/02/15 06:27:11;;;;;;;18.37;11.47;;;;;;;;;;6149383;23;20160;-86
2022/02/15 06:30:33;;;;;;;15.73;11.20;;;;;;;;;;6153062;23;20207;-86
2022/02/15 06:33:44;;;;;;;16.47;11.67;;;;;;;;;;6144340;23;20198;-86
2022/02/15 06:36:54;;;;;;;19.23;12.77;;;;;;;;;;6150285;23;20157;-86
2022/02/15 06:40:00;;;;;;;18.90;10.97;;;;;;;;;;6151573;23;20490;-86
2022/02/15 06:43:05;;;;;;;17.87;11.70;;;;;;;;;;6153271;23;20214;-86
2022/02/15 06:46:13;;;;;;;17.67;11.87;;;;;;;;;;6180431;23;20159;-86
2022/02/15 06:49:18;;;;;;;21.53;14.43;;;;;;;;;;6165395;23;20163;-86
2022/02/15 06:52:41;;;;;;;20.40;14.17;;;;;;;;;;6146154;23;20192;-86
2022/02/15 06:55:53;;;;;;;17.40;11.53;;;;;;;;;;6180236;23;20167;-86
2022/02/15 06:58:57;;;;;;;18.20;11.90;;;;;;;;;;6161559;23;20162;-86
2022/02/15 07:02:05;;;;;;;15.37;10.87;;;;;;;;;;6162638;23;20163;-86
2022/02/15 07:05:14;;;;;;;15.53;10.40;;;;;;;;;;6162738;23;20168;-86
2022/02/15 07:08:21;;;;;;;14.10;10.37;;;;;;;;;;6161902;23;20160;-86
2022/02/15 07:11:28;;;;;;;15.17;10.23;;;;;;;;;;6161947;23;20157;-87
2022/02/15 07:14:32;;;;;;;11.80;8.77;;;;;;;;;;6161716;23;20188;-86
2022/02/15 07:17:39;;;;;;;12.63;9.67;;;;;;;;;;6161508;23;20153;-86
2022/02/15 07:20:49;;;;;;;14.23;9.87;;;;;;;;;;6163350;23;20161;-86
2022/02/15 07:23:59;;;;;;;13.13;9.37;;;;;;;;;;6154851;23;20507;-86
2022/02/15 07:27:22;;;;;;;13.93;9.17;;;;;;;;;;6183183;23;20161;-86
2022/02/15 07:30:31;;;;;;;13.20;9.70;;;;;;;;;;6153347;23;20173;-86
2022/02/15 07:33:40;;;;;;;14.73;9.33;;;;;;;;;;6151634;23;20200;-86
2022/02/15 07:36:44;;;;;;;11.93;8.53;;;;;;;;;;6169093;23;20173;-86
2022/02/15 07:39:48;;;;;;;16.97;10.90;;;;;;;;;;6175665;23;20180;-86
2022/02/15 07:42:52;;;;;;;14.37;9.97;;;;;;;;;;6158005;23;20200;-86
2022/02/15 07:45:56;;;;;;;13.27;8.80;;;;;;;;;;6161221;23;20149;-86
2022/02/15 07:49:01;;;;;;;14.27;9.90;;;;;;;;;;6161653;23;20591;-86
2022/02/15 07:52:05;;;;;;;10.57;8.23;;;;;;;;;;6161246;23;20208;-86
2022/02/15 07:55:09;;;;;;;13.60;9.87;;;;;;;;;;6161059;23;20495;-86
2022/02/15 07:58:13;;;;;;;13.30;10.07;;;;;;;;;;6161735;23;20153;-86
2022/02/15 08:01:17;;;;;;;11.77;8.47;;;;;;;;;;6160691;23;20164;-86
2022/02/15 08:04:21;;;;;;;18.80;15.27;;;;;;;;;;6151587;23;20184;-86
2022/02/15 08:07:32;;;;;;;34.23;25.13;;;;;;;;;;6162014;23;20163;-86
2022/02/15 08:10:37;;;;;;;54.83;33.97;;;;;;;;;;6177954;23;20153;-86
2022/02/15 08:13:42;;;;;;;21.23;13.57;;;;;;;;;;6154008;23;20538;-86
2022/02/15 08:16:46;;;;;;;14.97;11.10;;;;;;;;;;6178248;23;20602;-86
2022/02/15 08:19:51;;;;;;;12.10;8.57;;;;;;;;;;6161226;23;20165;-86
2022/02/15 08:22:55;;;;;;;14.37;10.30;;;;;;;;;;6157367;23;20666;-86
2022/02/15 08:25:59;;;;;;;9.60;8.43;;;;;;;;;;6160987;23;20145;-86
2022/02/15 08:29:04;;;;;;;12.63;10.47;;;;;;;;;;6169898;23;20173;-86
2022/02/15 08:32:08;;;;;;;13.33;10.83;;;;;;;;;;6152390;23;20174;-86
2022/02/15 08:35:16;;;;;;;14.57;13.00;;;;;;;;;;6162804;23;20190;-86
2022/02/15 08:38:20;;;;;;;9.33;8.03;;;;;;;;;;6162626;23;20161;-85
2022/02/15 08:41:25;;;;;;;7.37;5.60;;;;;;;;;;6168531;23;20177;-85
2022/02/15 08:44:32;;;;;;;24.20;18.93;;;;;;;;;;6168290;23;20185;-86
2022/02/15 08:47:37;;;;;;;28.23;18.60;;;;;;;;;;6186592;23;20172;-86
2022/02/15 08:50:41;;;;;;;8.27;6.10;;;;;;;;;;6170566;23;20175;-86
2022/02/15 08:53:50;;;;;;;7.07;4.57;;;;;;;;;;6169866;23;20200;-86
2022/02/15 08:56:55;;;;;;;4.50;4.10;;;;;;;;;;6178586;23;20471;-86
2022/02/15 08:59:59;;;;;;;9.07;3.67;;;;;;;;;;6179565;23;20464;-88
2022/02/15 09:03:03;;;;;;;5.13;3.93;;;;;;;;;;6174511;23;20197;-87
2022/02/15 09:06:07;;;;;;;5.70;3.30;;;;;;;;;;6178826;23;20149;-88
2022/02/15 09:09:13;;;;;;;4.77;4.23;;;;;;;;;;6168857;23;20168;-88
2022/02/15 09:12:17;;;;;;;6.83;3.33;;;;;;;;;;6178602;23;20153;-88
2022/02/15 09:15:21;;;;;;;12.47;7.27;;;;;;;;;;6178039;23;20511;-88
2022/02/15 09:18:25;;;;;;;7.23;5.23;;;;;;;;;;6178687;23;20153;-88
2022/02/15 09:21:29;;;;;;;6.27;3.77;;;;;;;;;;6178582;23;20602;-87
2022/02/15 09:24:33;;;;;;;9.03;4.90;;;;;;;;;;6178356;23;20153;-87
2022/02/15 09:27:37;;;;;;;13.47;8.30;;;;;;;;;;6178756;23;20153;-88
2022/02/15 09:30:41;;;;;;;8.97;6.27;;;;;;;;;;6195968;23;20157;-88
2022/02/15 09:33:51;;;;;;;8.70;7.63;;;;;;;;;;6171308;23;20192;-87
2022/02/15 09:36:55;;;;;;;7.43;6.03;;;;;;;;;;6178300;23;20153;-87
2022/02/15 09:40:00;;;;;;;10.30;5.50;;;;;;;;;;6175297;23;20176;-87
2022/02/15 09:43:06;;;;;;;6.33;5.73;;;;;;;;;;6140294;23;20511;-87
2022/02/15 09:46:14;;;;;;;3.83;3.43;;;;;;;;;;6162327;23;20157;-83
2022/02/15 09:52:46;;;;;;;8.20;6.47;;;;;;;;;;6152004;23;20224;-84
2022/02/15 09:55:50;;;;;;;9.80;6.30;;;;;;;;;;6168343;23;20196;-85
2022/02/15 09:58:56;;;;;;;10.47;8.30;;;;;;;;;;6151560;23;20168;-84
2022/02/15 10:02:05;;;;;;;14.30;10.77;;;;;;;;;;6161678;23;20582;-85
2022/02/15 10:05:14;;;;;;;24.73;14.47;;;;;;;;;;6151919;23;20172;-85
2022/02/15 10:08:29;;;;;;;12.33;8.77;;;;;;;;;;6151692;23;20173;-85
2022/02/15 10:11:36;;;;;;;9.17;6.27;;;;;;;;;;6151555;23;20479;-85
2022/02/15 10:14:42;;;;;;;45.87;29.07;;;;;;;;;;6161303;23;20185;-85
2022/02/15 10:17:46;;;;;;;8.57;7.77;;;;;;;;;;6178581;23;20157;-84
2022/02/15 10:20:57;;;;;;;6.40;5.63;;;;;;;;;;6179389;23;20161;-85
2022/02/15 10:24:01;;;;;;;8.77;5.03;;;;;;;;;;6153389;23;20650;-85
2022/02/15 10:27:08;;;;;;;4.93;4.20;;;;;;;;;;6161342;23;20456;-84
2022/02/15 10:30:13;;;;;;;6.53;5.83;;;;;;;;;;6160969;23;20157;-84
2022/02/15 10:33:28;;;;;;;5.87;5.00;;;;;;;;;;6173034;23;20192;-85
2022/02/15 10:36:32;;;;;;;5.33;4.83;;;;;;;;;;6151555;23;20172;-85
2022/02/15 10:39:50;;;;;;;10.50;8.03;;;;;;;;;;6159112;23;20177;-85
2022/02/15 10:42:54;;;;;;;7.13;4.30;;;;;;;;;;6151110;23;20193;-85
2022/02/15 10:46:08;;;;;;;6.33;5.03;;;;;;;;;;6160711;23;20149;-85
2022/02/15 10:49:13;;;;;;;8.83;7.93;;;;;;;;;;6178129;23;20157;-85
2022/02/15 10:52:17;;;;;;;6.80;4.80;;;;;;;;;;6160200;23;20153;-85
2022/02/15 10:55:21;;;;;;;6.23;5.00;;;;;;;;;;6161137;23;20184;-85
2022/02/15 10:58:27;;;;;;;4.93;4.40;;;;;;;;;;6161562;23;20153;-86
2022/02/15 11:01:32;;;;;;;6.17;5.00;;;;;;;;;;6161060;23;20157;-85
2022/02/15 11:04:38;;;;;;;6.60;4.90;;;;;;;;;;6160798;23;20149;-85
2022/02/15 11:07:43;;;;;;;6.47;4.47;;;;;;;;;;6161534;23;20157;-85
2022/02/15 11:10:54;;;;;;;5.60;4.23;;;;;;;;;;6161037;23;20603;-86
2022/02/15 11:13:58;;;;;;;6.60;4.90;;;;;;;;;;6150797;23;20192;-85
2022/02/15 11:17:13;;;;;;;5.97;4.43;;;;;;;;;;6178104;23;20161;-85
2022/02/15 11:20:21;;;;;;;6.07;4.80;;;;;;;;;;6151539;23;20172;-86
2022/02/15 11:23:28;;;;;;;6.57;5.37;;;;;;;;;;6155280;23;20192;-85
2022/02/15 11:26:34;;;;;;;6.10;4.77;;;;;;;;;;6160779;23;20157;-86
2022/02/15 11:29:56;;;;;;;8.37;5.70;;;;;;;;;;6161192;23;20459;-85
2022/02/15 11:33:07;;;;;;;8.40;4.93;;;;;;;;;;6157458;23;20189;-85
2022/02/15 11:36:15;;;;;;;6.13;4.80;;;;;;;;;;6158927;23;20645;-85
2022/02/15 11:39:22;;;;;;;8.77;6.37;;;;;;;;;;6177163;23;20161;-86
2022/02/15 11:42:26;;;;;;;9.13;5.87;;;;;;;;;;6159206;23;20157;-86
2022/02/15 11:45:32;;;;;;;10.60;6.13;;;;;;;;;;6161339;23;20149;-85
2022/02/15 11:48:41;;;;;;;6.60;5.17;;;;;;;;;;6161723;23;20153;-85
2022/02/15 11:51:47;;;;;;;8.37;4.97;;;;;;;;;;6161232;23;20153;-86
2022/02/15 11:55:01;;;;;;;5.83;5.00;;;;;;;;;;6144046;23;20185;-86
2022/02/15 11:58:09;;;;;;;6.70;5.60;;;;;;;;;;6184959;23;20484;-86
2022/02/15 12:01:40;;;;;;;8.40;5.73;;;;;;;;;;6161570;23;20149;-86
2022/02/15 12:04:53;;;;;;;5.87;5.17;;;;;;;;;;6162483;23;20149;-86
2022/02/15 12:07:57;;;;;;;7.30;5.20;;;;;;;;;;6162632;23;20157;-86
2022/02/15 12:11:05;;;;;;;8.07;5.20;;;;;;;;;;6163085;23;20157;-86
2022/02/15 12:14:10;;;;;;;8.10;5.87;;;;;;;;;;6153962;23;20506;-86
2022/02/15 12:17:23;;;;;;;9.47;7.03;;;;;;;;;;6163276;23;20157;-86
2022/02/15 12:20:27;;;;;;;34.80;16.83;;;;;;;;;;6162272;23;20460;-86
2022/02/15 12:23:38;;;;;;;38.53;20.33;;;;;;;;;;6154106;23;20527;-87
2022/02/15 12:26:57;;;;;;;7.83;6.20;;;;;;;;;;6167043;23;20163;-86
2022/02/15 12:30:01;;;;;;;6.93;6.00;;;;;;;;;;6163968;23;20157;-87
2022/02/15 12:33:08;;;;;;;7.63;5.70;;;;;;;;;;6159643;23;20192;-85
2022/02/15 12:36:14;;;;;;;8.10;6.57;;;;;;;;;;6164240;23;20181;-86
2022/02/15 12:39:20;;;;;;;7.87;6.43;;;;;;;;;;6161922;23;20153;-86
2022/02/15 12:42:26;;;;;;;8.23;6.00;;;;;;;;;;6162861;23;20157;-86
2022/02/15 12:45:30;;;;;;;7.00;5.93;;;;;;;;;;6171549;23;20169;-85
2022/02/15 12:48:36;;;;;;;9.17;7.87;;;;;;;;;;6169340;23;20173;-86
2022/02/15 12:51:41;;;;;;;6.67;5.63;;;;;;;;;;6162661;23;20463;-86
2022/02/15 12:54:49;;;;;;;7.83;6.27;;;;;;;;;;6179935;23;20472;-86
2022/02/15 12:57:54;;;;;;;7.53;5.23;;;;;;;;;;6162098;23;20157;-87
2022/02/15 13:01:00;;;;;;;8.33;6.00;;;;;;;;;;6161881;23;20157;-86
2022/02/15 13:04:07;;;;;;;6.43;5.67;;;;;;;;;;6153689;23;20192;-86
2022/02/15 13:07:11;;;;;;;6.53;5.40;;;;;;;;;;6162344;23;20149;-86
2022/02/15 13:10:21;;;;;;;10.67;6.80;;;;;;;;;;6161511;23;20160;-86
2022/02/15 13:13:26;;;;;;;7.27;6.37;;;;;;;;;;6173404;23;20193;-85
2022/02/15 13:16:44;;;;;;;8.47;6.63;;;;;;;;;;6162076;23;20491;-86
2022/02/15 13:19:48;;;;;;;7.47;5.63;;;;;;;;;;6152279;23;20173;-86
2022/02/15 13:23:07;;;;;;;8.20;5.70;;;;;;;;;;6168681;23;20649;-86
2022/02/15 13:26:11;;;;;;;6.00;5.03;;;;;;;;;;6169755;23;20165;-86
2022/02/15 13:29:27;;;;;;;5.80;4.87;;;;;;;;;;6162555;23;20157;-86
2022/02/15 13:32:35;;;;;;;6.83;4.90;;;;;;;;;;6178290;23;20185;-88
2022/02/15 13:35:45;;;;;;;6.13;4.83;;;;;;;;;;6162860;23;20622;-86
2022/02/15 13:38:49;;;;;;;6.60;4.83;;;;;;;;;;6162441;23;20153;-86
2022/02/15 13:41:53;;;;;;;5.60;4.70;;;;;;;;;;6162425;23;20570;-86
2022/02/15 13:44:58;;;;;;;6.17;4.90;;;;;;;;;;6162474;23;20460;-86
2022/02/15 13:48:02;;;;;;;5.87;5.07;;;;;;;;;;6162888;23;20153;-86
2022/02/15 13:51:06;;;;;;;4.53;4.10;;;;;;;;;;6162987;23;20157;-86
2022/02/15 13:54:11;;;;;;;6.23;4.67;;;;;;;;;;6153838;23;20184;-86
2022/02/15 13:57:16;;;;;;;6.67;4.63;;;;;;;;;;6162796;23;20184;-86
2022/02/15 14:00:23;;;;;;;6.07;4.60;;;;;;;;;;6162319;23;20157;-86
2022/02/15 14:03:27;;;;;;;5.67;4.60;;;;;;;;;;6151756;23;20192;-87
2022/02/15 14:06:33;;;;;;;4.90;3.97;;;;;;;;;;6162053;23;20157;-83
2022/02/15 14:09:37;;;;;;;45.23;24.77;;;;;;;;;;6163694;23;20157;-84
2022/02/15 14:12:41;;;;;;;30.17;14.67;;;;;;;;;;6171327;23;20199;-85
2022/02/15 14:15:46;;;;;;;4.67;3.70;;;;;;;;;;6161525;23;20253;-86
2022/02/15 14:18:50;;;;;;;4.17;3.40;;;;;;;;;;6162212;23;20153;-86
2022/02/15 14:21:55;;;;;;;3.27;2.97;;;;;;;;;;6163123;23;20594;-86
2022/02/15 14:24:59;;;;;;;4.07;3.20;;;;;;;;;;6162300;23;20595;-85
2022/02/15 14:28:03;;;;;;;4.23;3.63;;;;;;;;;;6162603;23;20152;-86
2022/02/15 14:31:07;;;;;;;7.07;4.10;;;;;;;;;;6178891;23;20153;-87
2022/02/15 14:34:11;;;;;;;4.13;3.50;;;;;;;;;;6171394;23;20188;-85
2022/02/15 14:37:15;;;;;;;5.93;3.50;;;;;;;;;;6152866;23;20196;-86
2022/02/15 14:40:20;;;;;;;5.57;4.97;;;;;;;;;;6160142;23;20180;-86
2022/02/15 14:43:24;;;;;;;3.80;3.40;;;;;;;;;;6191869;23;20193;-86
2022/02/15 14:46:28;;;;;;;3.50;2.93;;;;;;;;;;6179679;23;20154;-85
2022/02/15 14:49:33;;;;;;;4.57;3.90;;;;;;;;;;6178578;23;20156;-86
2022/02/15 14:52:39;;;;;;;3.20;2.90;;;;;;;;;;6176062;23;20188;-86
2022/02/15 14:55:43;;;;;;;3.97;2.67;;;;;;;;;;6179161;23;20185;-86
2022/02/15 14:58:48;;;;;;;3.50;2.43;;;;;;;;;;6178531;23;20157;-86
2022/02/15 15:01:53;;;;;;;3.40;3.00;;;;;;;;;;6185515;23;20177;-86
2022/02/15 15:04:58;;;;;;;2.90;2.40;;;;;;;;;;6178266;23;20476;-86
2022/02/15 15:08:03;;;;;;;3.80;2.23;;;;;;;;;;6168448;23;20173;-85
2022/02/15 15:11:08;;;;;;;3.30;2.00;;;;;;;;;;6161569;23;20157;-86
2022/02/15 15:14:14;;;;;;;2.60;2.17;;;;;;;;;;6169803;23;20196;-86
2022/02/15 15:17:18;;;;;;;2.97;2.60;;;;;;;;;;6178368;23;20185;-86
2022/02/15 15:20:23;;;;;;;3.23;2.17;;;;;;;;;;6167897;23;20172;-86
2022/02/15 15:23:27;;;;;;;3.53;2.27;;;;;;;;;;6167938;23;20657;-86
2022/02/15 15:26:32;;;;;;;3.60;3.30;;;;;;;;;;6178111;23;20153;-86
2022/02/15 15:29:36;;;;;;;4.37;3.40;;;;;;;;;;6178045;23;20152;-86
2022/02/15 15:32:41;;;;;;;4.03;3.67;;;;;;;;;;6175428;23;20188;-86
2022/02/15 15:35:45;;;;;;;4.73;4.23;;;;;;;;;;6185115;23;20173;-86
2022/02/15 15:38:50;;;;;;;5.07;2.20;;;;;;;;;;6171500;23;20168;-86
2022/02/15 15:41:54;;;;;;;2.97;2.07;;;;;;;;;;6180241;23;20152;-86
2022/02/15 15:44:58;;;;;;;4.10;2.70;;;;;;;;;;6198343;23;20153;-87
2022/02/15 15:48:03;;;;;;;2.87;2.20;;;;;;;;;;6183828;23;20157;-87
2022/02/15 15:51:08;;;;;;;2.93;1.93;;;;;;;;;;6184062;23;20153;-88
2022/02/15 15:54:12;;;;;;;3.17;2.00;;;;;;;;;;6177268;23;20189;-88
2022/02/15 15:57:16;;;;;;;5.83;3.27;;;;;;;;;;6168316;23;20184;-88
2022/02/15 16:00:21;;;;;;;4.10;2.47;;;;;;;;;;6205738;23;20152;-87
2022/02/15 16:03:26;;;;;;;3.53;2.70;;;;;;;;;;6178246;23;20192;-87
2022/02/15 16:06:34;;;;;;;3.63;2.60;;;;;;;;;;6182013;23;20149;-87
2022/02/15 16:09:39;;;;;;;4.23;3.00;;;;;;;;;;6207806;23;20157;-88
2022/02/15 16:12:44;;;;;;;9.93;5.27;;;;;;;;;;6182259;23;20193;-87
2022/02/15 16:15:48;;;;;;;13.33;11.37;;;;;;;;;;6179636;23;20152;-86
2022/02/15 16:18:53;;;;;;;33.23;28.07;;;;;;;;;;6196794;23;20149;-86
2022/02/15 16:21:58;;;;;;;5.20;4.43;;;;;;;;;;6179961;23;20471;-86
2022/02/15 16:25:03;;;;;;;4.60;3.80;;;;;;;;;;6198598;23;20157;-87
2022/02/15 16:28:08;;;;;;;9.90;5.00;;;;;;;;;;6196904;23;20452;-86
2022/02/15 16:31:17;;;;;;;8.80;7.90;;;;;;;;;;6179545;23;20153;-87
2022/02/15 16:34:22;;;;;;;5.03;4.53;;;;;;;;;;6169989;23;20188;-86
2022/02/15 16:37:26;;;;;;;4.70;3.57;;;;;;;;;;6179164;23;20181;-86
2022/02/15 16:40:31;;;;;;;3.70;2.50;;;;;;;;;;6173260;23;20499;-86
2022/02/15 16:43:34;;;;;;;3.67;2.70;;;;;;;;;;6173733;23;20495;-86
2022/02/15 16:46:40;;;;;;;4.23;3.60;;;;;;;;;;6179723;23;20149;-86
2022/02/15 16:49:44;;;;;;;4.23;2.90;;;;;;;;;;6179404;23;20600;-86
2022/02/15 16:52:48;;;;;;;3.57;3.23;;;;;;;;;;6176752;23;20192;-86
2022/02/15 16:55:52;;;;;;;3.93;3.40;;;;;;;;;;6179439;23;20464;-87
2022/02/15 16:58:56;;;;;;;5.10;3.70;;;;;;;;;;6179615;23;20157;-87
2022/02/15 17:02:00;;;;;;;5.50;4.27;;;;;;;;;;6196113;23;20157;-87
2022/02/15 17:05:05;;;;;;;5.97;3.90;;;;;;;;;;6179134;23;20157;-87
2022/02/15 17:08:10;;;;;;;4.77;3.60;;;;;;;;;;6169427;23;20165;-86
2022/02/15 17:11:14;;;;;;;5.70;3.30;;;;;;;;;;6179098;23;20161;-86
2022/02/15 17:14:18;;;;;;;4.13;3.40;;;;;;;;;;6170692;23;20192;-86
2022/02/15 17:17:24;;;;;;;4.40;4.00;;;;;;;;;;6178436;23;20181;-87
2022/02/15 17:20:29;;;;;;;4.87;3.67;;;;;;;;;;6169247;23;20495;-88
2022/02/15 17:23:36;;;;;;;4.60;3.50;;;;;;;;;;6173343;23;20192;-87
2022/02/15 17:26:40;;;;;;;11.47;8.10;;;;;;;;;;6181733;23;20153;-86
2022/02/15 17:29:44;;;;;;;8.83;4.47;;;;;;;;;;6179917;23;20160;-87
2022/02/15 17:32:50;;;;;;;5.33;3.30;;;;;;;;;;6195273;23;20184;-87
2022/02/15 17:35:54;;;;;;;3.73;3.33;;;;;;;;;;6197002;23;20483;-86
2022/02/15 17:38:59;;;;;;;6.17;3.47;;;;;;;;;;6179217;23;20157;-86
2022/02/15 17:42:03;;;;;;;5.77;3.63;;;;;;;;;;6196532;23;20161;-86
2022/02/15 17:45:12;;;;;;;15.87;10.93;;;;;;;;;;6179980;23;20153;-86
2022/02/15 17:48:16;;;;;;;17.90;12.40;;;;;;;;;;6179004;23;20154;-86
2022/02/15 17:51:20;;;;;;;11.60;10.07;;;;;;;;;;6183239;23;20152;-86
2022/02/15 17:54:26;;;;;;;5.33;4.47;;;;;;;;;;6174252;23;20214;-86
2022/02/15 17:57:30;;;;;;;4.50;3.33;;;;;;;;;;6181633;23;20180;-86
2022/02/15 18:00:36;;;;;;;4.63;3.43;;;;;;;;;;6180826;23;20520;-86
2022/02/15 18:03:40;;;;;;;5.17;3.90;;;;;;;;;;6174330;23;20572;-86
2022/02/15 18:06:44;;;;;;;4.17;3.40;;;;;;;;;;6169999;23;20172;-85
2022/02/15 18:09:48;;;;;;;5.27;3.90;;;;;;;;;;6170045;23;20560;-86
2022/02/15 18:12:52;;;;;;;9.50;5.70;;;;;;;;;;6176483;23;20192;-86
2022/02/15 18:15:56;;;;;;;5.10;4.03;;;;;;;;;;6180135;23;20513;-87
2022/02/15 18:19:01;;;;;;;4.70;3.80;;;;;;;;;;6179795;23;20505;-86
2022/02/15 18:22:06;;;;;;;5.73;3.47;;;;;;;;;;6178713;23;20468;-88
2022/02/15 18:25:10;;;;;;;4.10;3.60;;;;;;;;;;6198438;23;21048;-88
2022/02/15 18:28:14;;;;;;;4.60;3.80;;;;;;;;;;6180782;23;20509;-88
2022/02/15 18:31:19;;;;;;;6.57;4.20;;;;;;;;;;6177758;23;20516;-88
2022/02/15 18:34:23;;;;;;;6.37;3.73;;;;;;;;;;6168711;23;20572;-88
2022/02/15 18:37:27;;;;;;;5.53;3.90;;;;;;;;;;6170296;23;20596;-89
2022/02/15 18:40:32;;;;;;;5.20;4.07;;;;;;;;;;6173675;23;20576;-88
2022/02/15 18:43:37;;;;;;;5.43;4.07;;;;;;;;;;6170385;23;20583;-88
2022/02/15 18:46:41;;;;;;;5.87;3.87;;;;;;;;;;6196598;23;20517;-88
2022/02/15 18:49:45;;;;;;;4.60;4.00;;;;;;;;;;6168197;23;20548;-88
2022/02/15 18:52:49;;;;;;;5.00;4.10;;;;;;;;;;6175280;23;20192;-87
2022/02/15 18:55:54;;;;;;;4.83;3.80;;;;;;;;;;6177964;23;20509;-88
2022/02/15 18:58:58;;;;;;;6.50;4.30;;;;;;;;;;6194594;23;20824;-88
2022/02/15 19:02:02;;;;;;;5.63;3.50;;;;;;;;;;6167904;23;20552;-89
2022/02/15 19:05:06;;;;;;;5.30;4.43;;;;;;;;;;6167308;23;20552;-88
2022/02/15 19:08:10;;;;;;;6.70;5.27;;;;;;;;;;6167753;23;20544;-89
2022/02/15 19:11:14;;;;;;;6.83;4.57;;;;;;;;;;6194828;23;20516;-88
2022/02/15 19:14:19;;;;;;;10.23;6.97;;;;;;;;;;6168466;23;20567;-87
2022/02/15 19:17:24;;;;;;;8.70;5.13;;;;;;;;;;6195330;23;20548;-87
2022/02/15 19:20:28;;;;;;;6.97;5.07;;;;;;;;;;6178152;23;20508;-87
2022/02/15 19:23:33;;;;;;;6.07;5.07;;;;;;;;;;6172186;23;20572;-87
2022/02/15 19:26:37;;;;;;;6.43;5.17;;;;;;;;;;6177763;23;20512;-88
2022/02/15 19:29:41;;;;;;;6.97;5.40;;;;;;;;;;6178322;23;20505;-87
2022/02/15 19:32:45;;;;;;;6.87;5.40;;;;;;;;;;6175538;23;20890;-87
2022/02/15 19:35:50;;;;;;;7.77;5.67;;;;;;;;;;6178014;23;20517;-87
2022/02/15 19:38:55;;;;;;;7.47;5.40;;;;;;;;;;6195098;23;20184;-87
2022/02/15 19:41:59;;;;;;;7.47;5.87;;;;;;;;;;6178400;23;20520;-87
2022/02/15 19:45:04;;;;;;;9.63;7.03;;;;;;;;;;6195124;23;20521;-87
2022/02/15 19:48:10;;;;;;;8.30;6.80;;;;;;;;;;6177984;23;20501;-87
2022/02/15 19:51:14;;;;;;;7.37;5.73;;;;;;;;;;6178367;23;20501;-87
2022/02/15 19:54:18;;;;;;;8.10;6.27;;;;;;;;;;6185743;23;20572;-87
2022/02/15 19:57:22;;;;;;;8.27;5.70;;;;;;;;;;6168097;23;20903;-87
2022/02/15 20:00:26;;;;;;;8.63;5.73;;;;;;;;;;6178190;23;20508;-87
2022/02/15 20:03:31;;;;;;;6.57;5.53;;;;;;;;;;6172376;23;20572;-87
2022/02/15 20:06:37;;;;;;;6.37;5.10;;;;;;;;;;6185087;23;20556;-87
2022/02/15 20:09:41;;;;;;;7.00;5.17;;;;;;;;;;6167939;23;20556;-86
2022/02/15 20:12:46;;;;;;;5.10;4.07;;;;;;;;;;6175589;23;20571;-86
2022/02/15 20:15:51;;;;;;;5.63;4.63;;;;;;;;;;6185870;23;21084;-87
2022/02/15 20:18:55;;;;;;;7.03;4.87;;;;;;;;;;6167957;23;21152;-87
2022/02/15 20:21:59;;;;;;;6.40;5.37;;;;;;;;;;6178172;23;21061;-87
2022/02/15 20:25:04;;;;;;;7.57;5.37;;;;;;;;;;6179383;23;21065;-87
2022/02/15 20:28:08;;;;;;;6.93;4.97;;;;;;;;;;6162496;23;20509;-87
2022/02/15 20:31:12;;;;;;;5.83;4.87;;;;;;;;;;6169773;23;20560;-86
2022/02/15 20:34:18;;;;;;;5.27;4.20;;;;;;;;;;6169709;23;20895;-86
2022/02/15 20:37:21;;;;;;;4.93;4.23;;;;;;;;;;6173046;23;20595;-86
2022/02/15 20:40:25;;;;;;;5.13;4.00;;;;;;;;;;6174088;23;20575;-86
2022/02/15 20:43:30;;;;;;;6.07;4.33;;;;;;;;;;6169641;23;21127;-87
2022/02/15 20:46:35;;;;;;;5.43;3.83;;;;;;;;;;6196688;23;20516;-87
2022/02/15 20:49:39;;;;;;;4.50;3.97;;;;;;;;;;6179673;23;20501;-87
2022/02/15 20:52:43;;;;;;;6.30;4.00;;;;;;;;;;6194194;23;20579;-87
2022/02/15 20:55:54;;;;;;;5.13;4.23;;;;;;;;;;6179523;23;20500;-87
2022/02/15 20:58:58;;;;;;;6.00;4.43;;;;;;;;;;6170203;23;20592;-87
2022/02/15 21:02:02;;;;;;;4.97;4.23;;;;;;;;;;6179638;23;20508;-87
2022/02/15 21:05:07;;;;;;;6.57;4.97;;;;;;;;;;6179451;23;20500;-87
2022/02/15 21:08:11;;;;;;;5.90;4.53;;;;;;;;;;6179353;23;20501;-87
2022/02/15 21:11:16;;;;;;;6.23;4.60;;;;;;;;;;6179589;23;20504;-87
2022/02/15 21:14:22;;;;;;;6.70;4.83;;;;;;;;;;6187147;23;20572;-87
2022/02/15 21:17:26;;;;;;;6.43;5.10;;;;;;;;;;6196613;23;20803;-87
2022/02/15 21:20:30;;;;;;;7.77;5.13;;;;;;;;;;6179997;23;20509;-87
2022/02/15 21:23:34;;;;;;;5.87;4.27;;;;;;;;;;6173219;23;20575;-87
2022/02/15 21:26:39;;;;;;;5.60;4.80;;;;;;;;;;6179367;23;20513;-86
2022/02/15 21:29:43;;;;;;;7.07;4.93;;;;;;;;;;6178652;23;20505;-86
2022/02/15 21:32:47;;;;;;;7.57;5.50;;;;;;;;;;6169061;23;20580;-87
2022/02/15 21:35:51;;;;;;;5.80;4.50;;;;;;;;;;6195888;23;21052;-87
2022/02/15 21:38:56;;;;;;;6.07;4.80;;;;;;;;;;6185663;23;20596;-87
2022/02/15 21:42:00;;;;;;;6.30;4.67;;;;;;;;;;6196019;23;20820;-87
2022/02/15 21:45:09;;;;;;;6.67;5.27;;;;;;;;;;6179708;23;20517;-87
2022/02/15 21:48:13;;;;;;;7.03;5.00;;;;;;;;;;6178511;23;20513;-87
2022/02/15 21:51:17;;;;;;;5.07;4.20;;;;;;;;;;6168610;23;20555;-87
2022/02/15 21:54:21;;;;;;;5.33;4.57;;;;;;;;;;6169525;23;20588;-87
2022/02/15 21:57:28;;;;;;;6.27;5.00;;;;;;;;;;6169624;23;20556;-87
2022/02/15 22:00:32;;;;;;;6.87;5.47;;;;;;;;;;6179294;23;20509;-86
2022/02/15 22:03:37;;;;;;;6.50;5.23;;;;;;;;;;6172697;23;20571;-86
2022/02/15 22:06:41;;;;;;;7.83;6.23;;;;;;;;;;6178570;23;20839;-87
2022/02/15 22:09:45;;;;;;;5.80;4.60;;;;;;;;;;6178550;23;20508;-87
2022/02/15 22:12:49;;;;;;;6.57;4.47;;;;;;;;;;6175613;23;20583;-86
2022/02/15 22:15:54;;;;;;;4.90;4.20;;;;;;;;;;6195793;23;20520;-87
2022/02/15 22:18:58;;;;;;;5.70;4.53;;;;;;;;;;6168463;23;20600;-86
2022/02/15 22:22:05;;;;;;;6.37;4.87;;;;;;;;;;6195834;23;20516;-87
2022/02/15 22:25:11;;;;;;;7.67;4.83;;;;;;;;;;6178866;23;20513;-87
2022/02/15 22:28:16;;;;;;;7.20;5.60;;;;;;;;;;6168719;23;20544;-87
2022/02/15 22:31:20;;;;;;;6.50;5.20;;;;;;;;;;6178817;23;20500;-87
2022/02/15 22:34:25;;;;;;;8.33;5.80;;;;;;;;;;6169653;23;20576;-86
2022/02/15 22:37:29;;;;;;;9.43;5.50;;;;;;;;;;6169349;23;20556;-87
2022/02/15 22:40:34;;;;;;;5.73;4.67;;;;;;;;;;6172375;23;20556;-87
2022/02/15 22:43:38;;;;;;;6.30;5.10;;;;;;;;;;6172515;23;20588;-87
2022/02/15 22:46:42;;;;;;;6.30;5.30;;;;;;;;;;6168530;23;20548;-86
2022/02/15 22:49:47;;;;;;;6.50;4.50;;;;;;;;;;6169110;23;20846;-87
2022/02/15 22:52:52;;;;;;;5.80;4.77;;;;;;;;;;6169143;23;20576;-86
2022/02/15 22:55:56;;;;;;;8.27;4.60;;;;;;;;;;6178403;23;20830;-86
2022/02/15 22:59:01;;;;;;;7.63;4.40;;;;;;;;;;6195487;23;20564;-86
2022/02/15 23:02:11;;;;;;;6.60;4.67;;;;;;;;;;6185432;23;20547;-86
2022/02/15 23:18:46;;;;;;;3.67;2.63;;;;;;;;;;6195738;23;21057;-86
2022/02/15 23:21:50;;;;;;;3.07;2.40;;;;;;;;;;6151552;23;21096;-87
2022/02/15 23:24:54;;;;;;;3.10;2.80;;;;;;;;;;6168542;23;20551;-86
2022/02/15 23:27:58;;;;;;;3.50;2.50;;;;;;;;;;6177876;23;20521;-86
2022/02/15 23:31:02;;;;;;;3.03;2.40;;;;;;;;;;6178079;23;21045;-87
2022/02/15 23:34:07;;;;;;;3.83;2.33;;;;;;;;;;6170303;23;20576;-86
2022/02/15 23:37:11;;;;;;;3.50;2.00;;;;;;;;;;6171995;23;20559;-86
2022/02/15 23:40:16;;;;;;;3.03;2.10;;;;;;;;;;6190152;23;20612;-86
2022/02/15 23:43:20;;;;;;;4.03;2.17;;;;;;;;;;6173353;23;21112;-86
2022/02/15 23:46:24;;;;;;;3.87;2.13;;;;;;;;;;6195538;23;20513;-86
2022/02/15 23:49:29;;;;;;;6.23;2.20;;;;;;;;;;6178047;23;20512;-86
2022/02/15 23:52:39;;;;;;;3.33;2.30;;;;;;;;;;6176819;23;20572;-86
2022/02/15 23:55:43;;;;;;;2.67;2.40;;;;;;;;;;6168253;23;20552;-86
2022/02/15 23:58:47;;;;;;;3.97;2.80;;;;;;;;;;6179816;23;20879;-86
